Terminal Aerodrome Forecast
Issued by NWS San Angelo, TX

Home | Current Version | Previous Version | Text Only | Print | Product List | Glossary On
Versions: 1 2 3 4 5 6 7 8 9 10 11 12
151
FTUS44 KSJT 091125
TAFSJT
TAF
KSJT 091125Z 0912/1012 27005KT P6SM SKC
     FM091800 29008KT P6SM SKC
     FM100100 22005KT P6SM FEW250=

USA.gov is the U.S. government's official web portal to all federal, state and local government web resources and services.